Mobridge, SD

3:41 AM CDT on October 23, 2014 (GMT -0500)
Mobridge Municipal | Change Station
CLOSE
Current Station
Airport
Location: Mobridge,
Elevation: 1716 ft
Nearby Weather Stations

Elev 1716 ft 45.55 °N, 100.41 °W | Updated 49 minutes ago

Clear
Clear
41 °F
Feels Like 38 °F
N
5
Wind Variable Wind from East

Today
High -- | Low -- °F
--% Chance of Precip.
Yesterday
High -- | Low -- °F
Precip. -- in
8:08 AM 6:42 PM
Waning Crescent, 0% visible
Pressure 29.95 in
Visibility 10.0 miles
Clouds Clear
Windchill 38 °F
Dew Point 36 °F
Humidity 82%
Rainfall 0.00 in
Snow Depth Not available.
UV 0 out of 12
Pollen 2.30 out of 12
Air Quality Not available.
Flu Activity Sporadic
METAR KMBG 230752Z AUTO 10004KT 10SM CLR 05/02 A2994 RMK AO2 SLP142 T00500022

More Conditions Fewer Conditions

Pressure 29.95 in
Visibility 10.0 miles
Clouds Clear
Windchill 38 °F
Dew Point 36 °F
Humidity 82%
Rainfall 0.00 in
Snow Depth Not available.
UV 0 out of 12
Pollen 2.30 out of 12
Air Quality Not available.
Flu Activity Sporadic
METAR KMBG 230752Z AUTO 10004KT 10SM CLR 05/02 A2994 RMK AO2 SLP142 T00500022

More Conditions Fewer Conditions

10-Day Weather Forecast

Almanac

Astronomy

Oct. 23, 2014 Rise Set
Actual Time 8:08 AM CDT 6:42 PM CDT
Civil Twilight 7:38 AM CDT 7:12 PM CDT
Nautical Twilight 7:03 AM CDT 7:47 PM CDT
Astronomical Twilight 6:29 AM CDT 8:21 PM CDT
Moon 7:49 AM CDT 6:44 PM CDT
Length of Visible Light 11h 34m
Length of Day
10h 33m
Tomorrow will be 3m 0s shorter.
Waning Crescent, 0% of the Moon is Illuminated
Today
Waning Crescent
Oct 23
New
Oct 30
First Quarter
Nov 6
Full
Nov 14
Last Quarter

Today's Extremes

State Highs State Lows

Community

WunderPhotos

Upload Photos

1,764,197 photos uploaded!

Nearby

Snow Depth

Station Depth Elevation
North Rapid Creek 1 in 6130 ft
Blind Park 1 in 6890 ft

Earthquake Activity

City Distance Mag. Time & Date
No recent earthquake activity has been reported nearby.
Minimum magnitude displayed is 2.5.

Coastal Water Temperatures

Place Temperature
No Stations Reporting

Nearby Weather Stations